Auburn, Missouri
Current Conditions -  °F | °C
As of 7:54 AM on Tuesday 21 Oct 2014 (Local Time) from KSET Reporting Station
Clear Clear  
Wind Chill: 44°   Ceiling: Unl
Heat Index: 44°   Visibility: 8mi
Dew Point: 42°   Wind: 0mph
Humidity: 93%   Direction: NA
Pressure: 30.1"   Gusts: NA
Location:  39.1646°N, 90.8436°W
Report Text: KSET 211254Z AUTO 00000KT 8SM CLR 07/06 A3010 RMK AO1 SLP192 T00670056
Loading
Personal Weather Stations






























Interactive Weather Map
Tropical Storm Tracking
New forecast layout! Learn more

10-Day Weather Forecast

Advertisements
Track Severe Weather on mobile